sensor_id;sensor_type;location;lat;lon;timestamp;P1;durP1;ratioP1;P2;durP2;ratioP2
45684;SDS011;46836;48.388;16.210;2022-12-15T00:02:15;39.83;;;23.17;;
45684;SDS011;46836;48.388;16.210;2022-12-15T00:05:01;46.88;;;22.67;;
45684;SDS011;46836;48.388;16.210;2022-12-15T00:07:47;42.85;;;24.85;;
45684;SDS011;46836;48.388;16.210;2022-12-15T00:10:33;51.42;;;26.85;;
45684;SDS011;46836;48.388;16.210;2022-12-15T00:13:19;41.17;;;23.10;;
45684;SDS011;46836;48.388;16.210;2022-12-15T00:16:05;44.55;;;24.13;;
45684;SDS011;46836;48.388;16.210;2022-12-15T00:18:50;46.17;;;23.58;;
45684;SDS011;46836;48.388;16.210;2022-12-15T00:21:36;50.97;;;26.15;;
45684;SDS011;46836;48.388;16.210;2022-12-15T00:24:21;46.90;;;24.75;;
45684;SDS011;46836;48.388;16.210;2022-12-15T00:27:07;59.65;;;26.00;;
45684;SDS011;46836;48.388;16.210;2022-12-15T00:29:53;49.72;;;25.42;;
45684;SDS011;46836;48.388;16.210;2022-12-15T00:32:38;43.85;;;22.85;;
45684;SDS011;46836;48.388;16.210;2022-12-15T00:35:27;46.97;;;24.98;;
45684;SDS011;46836;48.388;16.210;2022-12-15T00:38:13;46.47;;;23.65;;
45684;SDS011;46836;48.388;16.210;2022-12-15T00:40:59;43.58;;;22.15;;
45684;SDS011;46836;48.388;16.210;2022-12-15T00:43:28;48.97;;;24.13;;
45684;SDS011;46836;48.388;16.210;2022-12-15T00:45:57;42.28;;;23.95;;
45684;SDS011;46836;48.388;16.210;2022-12-15T00:48:43;48.10;;;24.45;;
45684;SDS011;46836;48.388;16.210;2022-12-15T00:51:11;46.88;;;27.13;;
45684;SDS011;46836;48.388;16.210;2022-12-15T00:53:39;54.92;;;25.77;;
45684;SDS011;46836;48.388;16.210;2022-12-15T00:56:25;38.05;;;22.20;;
45684;SDS011;46836;48.388;16.210;2022-12-15T00:59:11;50.85;;;24.20;;
45684;SDS011;46836;48.388;16.210;2022-12-15T01:01:57;41.45;;;23.88;;
45684;SDS011;46836;48.388;16.210;2022-12-15T01:04:44;45.45;;;24.30;;
45684;SDS011;46836;48.388;16.210;2022-12-15T01:07:29;41.17;;;22.83;;
45684;SDS011;46836;48.388;16.210;2022-12-15T01:10:15;48.17;;;24.67;;
45684;SDS011;46836;48.388;16.210;2022-12-15T01:13:03;48.22;;;25.15;;
45684;SDS011;46836;48.388;16.210;2022-12-15T01:15:48;53.50;;;24.67;;
45684;SDS011;46836;48.388;16.210;2022-12-15T01:18:34;48.78;;;24.58;;
45684;SDS011;46836;48.388;16.210;2022-12-15T01:21:20;43.70;;;24.05;;
45684;SDS011;46836;48.388;16.210;2022-12-15T01:23:50;44.60;;;24.17;;
45684;SDS011;46836;48.388;16.210;2022-12-15T01:26:18;48.80;;;24.45;;
45684;SDS011;46836;48.388;16.210;2022-12-15T01:28:45;48.83;;;24.45;;
45684;SDS011;46836;48.388;16.210;2022-12-15T01:31:12;46.38;;;24.75;;
45684;SDS011;46836;48.388;16.210;2022-12-15T01:33:39;45.65;;;24.50;;
45684;SDS011;46836;48.388;16.210;2022-12-15T01:36:09;49.80;;;26.08;;
45684;SDS011;46836;48.388;16.210;2022-12-15T01:38:37;49.35;;;24.65;;
45684;SDS011;46836;48.388;16.210;2022-12-15T01:41:05;50.97;;;24.35;;
45684;SDS011;46836;48.388;16.210;2022-12-15T01:43:35;44.53;;;23.27;;
45684;SDS011;46836;48.388;16.210;2022-12-15T01:53:49;47.70;;;25.20;;
45684;SDS011;46836;48.388;16.210;2022-12-15T01:56:25;43.78;;;22.90;;
45684;SDS011;46836;48.388;16.210;2022-12-15T01:59:01;45.72;;;22.73;;
45684;SDS011;46836;48.388;16.210;2022-12-15T02:01:30;50.17;;;25.17;;
45684;SDS011;46836;48.388;16.210;2022-12-15T02:03:57;46.60;;;23.58;;
45684;SDS011;46836;48.388;16.210;2022-12-15T02:06:24;45.25;;;23.98;;
45684;SDS011;46836;48.388;16.210;2022-12-15T02:08:58;46.00;;;23.83;;
45684;SDS011;46836;48.388;16.210;2022-12-15T02:14:19;47.15;;;23.67;;
45684;SDS011;46836;48.388;16.210;2022-12-15T02:40:58;47.17;;;26.45;;
45684;SDS011;46836;48.388;16.210;2022-12-15T02:43:27;49.55;;;27.00;;
45684;SDS011;46836;48.388;16.210;2022-12-15T02:51:39;42.70;;;24.35;;
45684;SDS011;46836;48.388;16.210;2022-12-15T02:57:16;44.30;;;23.83;;
45684;SDS011;46836;48.388;16.210;2022-12-15T03:02:21;44.75;;;24.35;;
45684;SDS011;46836;48.388;16.210;2022-12-15T03:04:53;48.70;;;24.00;;
45684;SDS011;46836;48.388;16.210;2022-12-15T03:07:22;44.03;;;24.98;;
45684;SDS011;46836;48.388;16.210;2022-12-15T03:09:56;44.42;;;24.67;;
45684;SDS011;46836;48.388;16.210;2022-12-15T03:12:27;42.78;;;23.95;;
45684;SDS011;46836;48.388;16.210;2022-12-15T03:14:54;45.00;;;24.65;;
45684;SDS011;46836;48.388;16.210;2022-12-15T03:17:21;45.47;;;24.63;;
45684;SDS011;46836;48.388;16.210;2022-12-15T03:19:48;44.58;;;25.70;;
45684;SDS011;46836;48.388;16.210;2022-12-15T03:22:15;49.47;;;25.00;;
45684;SDS011;46836;48.388;16.210;2022-12-15T03:24:42;47.25;;;25.52;;
45684;SDS011;46836;48.388;16.210;2022-12-15T03:27:09;43.03;;;23.75;;
45684;SDS011;46836;48.388;16.210;2022-12-15T03:29:36;45.00;;;23.80;;
45684;SDS011;46836;48.388;16.210;2022-12-15T03:32:03;46.50;;;23.80;;
45684;SDS011;46836;48.388;16.210;2022-12-15T03:34:31;50.17;;;23.88;;
45684;SDS011;46836;48.388;16.210;2022-12-15T03:36:58;47.72;;;24.17;;
45684;SDS011;46836;48.388;16.210;2022-12-15T03:39:25;52.28;;;27.30;;
45684;SDS011;46836;48.388;16.210;2022-12-15T03:41:52;58.17;;;29.80;;
45684;SDS011;46836;48.388;16.210;2022-12-15T03:44:19;55.05;;;27.40;;
45684;SDS011;46836;48.388;16.210;2022-12-15T03:46:46;60.40;;;30.63;;
45684;SDS011;46836;48.388;16.210;2022-12-15T03:49:13;59.92;;;33.47;;
45684;SDS011;46836;48.388;16.210;2022-12-15T03:51:40;58.53;;;31.65;;
45684;SDS011;46836;48.388;16.210;2022-12-15T03:54:07;53.10;;;29.63;;
45684;SDS011;46836;48.388;16.210;2022-12-15T03:56:34;49.00;;;27.48;;
45684;SDS011;46836;48.388;16.210;2022-12-15T03:59:01;51.10;;;28.30;;
45684;SDS011;46836;48.388;16.210;2022-12-15T04:01:29;48.45;;;26.65;;
45684;SDS011;46836;48.388;16.210;2022-12-15T04:04:01;57.08;;;26.95;;
45684;SDS011;46836;48.388;16.210;2022-12-15T04:06:29;52.92;;;27.77;;
45684;SDS011;46836;48.388;16.210;2022-12-15T04:08:57;56.92;;;29.25;;
45684;SDS011;46836;48.388;16.210;2022-12-15T04:11:24;53.08;;;27.98;;
45684;SDS011;46836;48.388;16.210;2022-12-15T04:13:51;55.58;;;27.65;;
45684;SDS011;46836;48.388;16.210;2022-12-15T04:16:18;52.80;;;24.73;;
45684;SDS011;46836;48.388;16.210;2022-12-15T04:18:46;51.30;;;26.63;;
45684;SDS011;46836;48.388;16.210;2022-12-15T04:21:33;47.90;;;25.02;;
45684;SDS011;46836;48.388;16.210;2022-12-15T04:24:00;46.80;;;26.98;;
45684;SDS011;46836;48.388;16.210;2022-12-15T04:26:46;45.67;;;25.13;;
45684;SDS011;46836;48.388;16.210;2022-12-15T04:29:31;45.90;;;26.05;;
45684;SDS011;46836;48.388;16.210;2022-12-15T04:32:17;56.80;;;26.83;;
45684;SDS011;46836;48.388;16.210;2022-12-15T04:35:03;48.42;;;23.85;;
45684;SDS011;46836;48.388;16.210;2022-12-15T04:37:49;62.13;;;26.35;;
45684;SDS011;46836;48.388;16.210;2022-12-15T04:40:34;41.33;;;23.77;;
45684;SDS011;46836;48.388;16.210;2022-12-15T04:43:20;52.92;;;25.58;;
45684;SDS011;46836;48.388;16.210;2022-12-15T04:46:06;44.90;;;23.70;;
45684;SDS011;46836;48.388;16.210;2022-12-15T04:48:51;48.63;;;24.75;;
45684;SDS011;46836;48.388;16.210;2022-12-15T04:51:37;49.35;;;25.63;;
45684;SDS011;46836;48.388;16.210;2022-12-15T04:54:23;49.85;;;24.60;;
45684;SDS011;46836;48.388;16.210;2022-12-15T04:57:08;45.28;;;24.35;;
45684;SDS011;46836;48.388;16.210;2022-12-15T04:59:54;46.42;;;24.77;;
45684;SDS011;46836;48.388;16.210;2022-12-15T05:02:40;49.55;;;23.50;;
45684;SDS011;46836;48.388;16.210;2022-12-15T05:05:25;46.80;;;23.05;;
45684;SDS011;46836;48.388;16.210;2022-12-15T05:08:11;45.47;;;25.13;;
45684;SDS011;46836;48.388;16.210;2022-12-15T05:10:59;44.70;;;23.23;;
45684;SDS011;46836;48.388;16.210;2022-12-15T05:13:45;44.17;;;24.65;;
45684;SDS011;46836;48.388;16.210;2022-12-15T05:16:30;44.35;;;23.20;;
45684;SDS011;46836;48.388;16.210;2022-12-15T05:19:16;49.05;;;23.30;;
45684;SDS011;46836;48.388;16.210;2022-12-15T05:22:02;45.03;;;24.15;;
45684;SDS011;46836;48.388;16.210;2022-12-15T05:24:47;88.80;;;40.80;;
45684;SDS011;46836;48.388;16.210;2022-12-15T05:27:33;44.58;;;25.50;;
45684;SDS011;46836;48.388;16.210;2022-12-15T05:30:19;45.15;;;24.30;;
45684;SDS011;46836;48.388;16.210;2022-12-15T05:33:04;44.40;;;24.38;;
45684;SDS011;46836;48.388;16.210;2022-12-15T05:35:31;48.35;;;23.77;;
45684;SDS011;46836;48.388;16.210;2022-12-15T05:37:58;44.35;;;24.15;;
45684;SDS011;46836;48.388;16.210;2022-12-15T05:40:25;42.20;;;23.80;;
45684;SDS011;46836;48.388;16.210;2022-12-15T05:42:52;42.30;;;22.15;;
45684;SDS011;46836;48.388;16.210;2022-12-15T05:45:22;43.13;;;22.42;;
45684;SDS011;46836;48.388;16.210;2022-12-15T05:47:50;36.08;;;21.08;;
45684;SDS011;46836;48.388;16.210;2022-12-15T05:50:18;43.28;;;23.75;;
45684;SDS011;46836;48.388;16.210;2022-12-15T05:52:46;43.33;;;23.23;;
45684;SDS011;46836;48.388;16.210;2022-12-15T05:55:17;42.47;;;24.02;;
45684;SDS011;46836;48.388;16.210;2022-12-15T05:57:53;43.58;;;22.67;;
45684;SDS011;46836;48.388;16.210;2022-12-15T06:00:20;45.47;;;23.88;;
45684;SDS011;46836;48.388;16.210;2022-12-15T06:02:48;42.10;;;24.67;;
45684;SDS011;46836;48.388;16.210;2022-12-15T06:05:16;42.15;;;23.27;;
45684;SDS011;46836;48.388;16.210;2022-12-15T06:07:43;44.75;;;24.80;;
45684;SDS011;46836;48.388;16.210;2022-12-15T06:10:10;45.65;;;22.88;;
45684;SDS011;46836;48.388;16.210;2022-12-15T06:12:37;43.92;;;23.92;;
45684;SDS011;46836;48.388;16.210;2022-12-15T06:15:04;42.72;;;24.27;;
45684;SDS011;46836;48.388;16.210;2022-12-15T06:17:31;49.50;;;23.50;;
45684;SDS011;46836;48.388;16.210;2022-12-15T06:19:58;44.17;;;24.08;;
45684;SDS011;46836;48.388;16.210;2022-12-15T06:22:27;45.25;;;23.88;;
45684;SDS011;46836;48.388;16.210;2022-12-15T06:24:55;43.08;;;22.80;;
45684;SDS011;46836;48.388;16.210;2022-12-15T06:27:22;44.30;;;24.92;;
45684;SDS011;46836;48.388;16.210;2022-12-15T06:29:49;51.58;;;26.40;;
45684;SDS011;46836;48.388;16.210;2022-12-15T06:32:16;41.17;;;23.92;;
45684;SDS011;46836;48.388;16.210;2022-12-15T06:34:43;43.30;;;22.23;;
45684;SDS011;46836;48.388;16.210;2022-12-15T06:37:09;44.15;;;23.10;;
45684;SDS011;46836;48.388;16.210;2022-12-15T06:39:38;38.40;;;21.50;;
45684;SDS011;46836;48.388;16.210;2022-12-15T06:42:05;50.45;;;25.70;;
45684;SDS011;46836;48.388;16.210;2022-12-15T06:44:32;42.60;;;22.35;;
45684;SDS011;46836;48.388;16.210;2022-12-15T06:46:59;50.78;;;27.60;;
45684;SDS011;46836;48.388;16.210;2022-12-15T06:49:26;48.85;;;26.08;;
45684;SDS011;46836;48.388;16.210;2022-12-15T06:51:53;46.47;;;24.63;;
45684;SDS011;46836;48.388;16.210;2022-12-15T06:54:20;48.05;;;23.95;;
45684;SDS011;46836;48.388;16.210;2022-12-15T06:56:47;41.17;;;23.52;;
45684;SDS011;46836;48.388;16.210;2022-12-15T06:59:15;40.30;;;21.85;;
45684;SDS011;46836;48.388;16.210;2022-12-15T07:01:42;43.75;;;23.63;;
45684;SDS011;46836;48.388;16.210;2022-12-15T07:04:09;40.63;;;23.83;;
45684;SDS011;46836;48.388;16.210;2022-12-15T07:06:37;49.40;;;25.10;;
45684;SDS011;46836;48.388;16.210;2022-12-15T07:09:05;42.60;;;23.75;;
45684;SDS011;46836;48.388;16.210;2022-12-15T07:11:36;44.00;;;21.00;;
45684;SDS011;46836;48.388;16.210;2022-12-15T07:14:04;39.13;;;21.48;;
45684;SDS011;46836;48.388;16.210;2022-12-15T07:16:31;40.38;;;21.27;;
45684;SDS011;46836;48.388;16.210;2022-12-15T07:18:58;37.42;;;21.15;;
45684;SDS011;46836;48.388;16.210;2022-12-15T07:21:25;40.40;;;20.00;;
45684;SDS011;46836;48.388;16.210;2022-12-15T07:23:52;41.42;;;21.23;;
45684;SDS011;46836;48.388;16.210;2022-12-15T07:26:22;37.30;;;20.20;;
45684;SDS011;46836;48.388;16.210;2022-12-15T07:28:50;41.63;;;21.13;;
45684;SDS011;46836;48.388;16.210;2022-12-15T07:31:20;37.60;;;18.55;;
45684;SDS011;46836;48.388;16.210;2022-12-15T07:33:48;38.47;;;20.77;;
45684;SDS011;46836;48.388;16.210;2022-12-15T07:36:18;40.58;;;19.92;;
45684;SDS011;46836;48.388;16.210;2022-12-15T07:38:46;43.53;;;22.17;;
45684;SDS011;46836;48.388;16.210;2022-12-15T07:41:16;36.20;;;19.98;;
45684;SDS011;46836;48.388;16.210;2022-12-15T07:43:43;36.45;;;19.88;;
45684;SDS011;46836;48.388;16.210;2022-12-15T07:46:12;34.80;;;18.70;;
45684;SDS011;46836;48.388;16.210;2022-12-15T07:48:39;34.03;;;18.40;;
45684;SDS011;46836;48.388;16.210;2022-12-15T07:51:06;34.88;;;19.65;;
45684;SDS011;46836;48.388;16.210;2022-12-15T07:53:44;32.47;;;17.75;;
45684;SDS011;46836;48.388;16.210;2022-12-15T07:56:12;30.88;;;16.33;;
45684;SDS011;46836;48.388;16.210;2022-12-15T07:58:41;30.05;;;16.92;;
45684;SDS011;46836;48.388;16.210;2022-12-15T08:01:09;31.52;;;17.02;;
45684;SDS011;46836;48.388;16.210;2022-12-15T08:03:38;30.25;;;17.60;;
45684;SDS011;46836;48.388;16.210;2022-12-15T08:06:07;29.20;;;16.50;;
45684;SDS011;46836;48.388;16.210;2022-12-15T08:08:36;31.85;;;17.88;;
45684;SDS011;46836;48.388;16.210;2022-12-15T08:11:08;33.45;;;17.92;;
45684;SDS011;46836;48.388;16.210;2022-12-15T08:13:37;33.42;;;17.50;;
45684;SDS011;46836;48.388;16.210;2022-12-15T08:16:26;27.70;;;16.77;;
45684;SDS011;46836;48.388;16.210;2022-12-15T08:18:53;33.08;;;17.13;;
45684;SDS011;46836;48.388;16.210;2022-12-15T08:21:22;33.03;;;18.65;;
45684;SDS011;46836;48.388;16.210;2022-12-15T08:23:49;32.20;;;18.00;;
45684;SDS011;46836;48.388;16.210;2022-12-15T08:26:17;32.78;;;18.13;;
45684;SDS011;46836;48.388;16.210;2022-12-15T08:28:48;32.25;;;17.70;;
45684;SDS011;46836;48.388;16.210;2022-12-15T08:31:16;34.83;;;20.13;;
45684;SDS011;46836;48.388;16.210;2022-12-15T08:33:46;32.72;;;18.25;;
45684;SDS011;46836;48.388;16.210;2022-12-15T08:36:15;30.13;;;18.00;;
45684;SDS011;46836;48.388;16.210;2022-12-15T08:38:43;33.67;;;18.65;;
45684;SDS011;46836;48.388;16.210;2022-12-15T08:41:15;36.35;;;19.65;;
45684;SDS011;46836;48.388;16.210;2022-12-15T08:43:45;38.50;;;19.42;;
45684;SDS011;46836;48.388;16.210;2022-12-15T08:46:19;31.10;;;18.58;;
45684;SDS011;46836;48.388;16.210;2022-12-15T08:48:48;36.10;;;19.35;;
45684;SDS011;46836;48.388;16.210;2022-12-15T08:51:15;35.20;;;19.75;;
45684;SDS011;46836;48.388;16.210;2022-12-15T08:53:43;30.20;;;18.33;;
45684;SDS011;46836;48.388;16.210;2022-12-15T08:56:12;33.25;;;19.20;;
45684;SDS011;46836;48.388;16.210;2022-12-15T08:58:41;40.05;;;20.05;;
45684;SDS011;46836;48.388;16.210;2022-12-15T09:01:10;37.90;;;20.23;;
45684;SDS011;46836;48.388;16.210;2022-12-15T09:03:48;36.28;;;19.67;;
45684;SDS011;46836;48.388;16.210;2022-12-15T09:06:20;37.28;;;19.92;;
45684;SDS011;46836;48.388;16.210;2022-12-15T09:08:52;37.28;;;19.45;;
45684;SDS011;46836;48.388;16.210;2022-12-15T09:11:20;36.80;;;18.52;;
45684;SDS011;46836;48.388;16.210;2022-12-15T09:13:47;31.15;;;18.17;;
45684;SDS011;46836;48.388;16.210;2022-12-15T09:16:15;39.45;;;20.33;;
45684;SDS011;46836;48.388;16.210;2022-12-15T09:18:44;33.40;;;18.75;;
45684;SDS011;46836;48.388;16.210;2022-12-15T09:21:15;29.83;;;17.67;;
45684;SDS011;46836;48.388;16.210;2022-12-15T09:23:47;37.33;;;20.40;;
45684;SDS011;46836;48.388;16.210;2022-12-15T09:26:18;32.72;;;19.73;;
45684;SDS011;46836;48.388;16.210;2022-12-15T09:28:46;37.35;;;20.08;;
45684;SDS011;46836;48.388;16.210;2022-12-15T09:31:24;33.88;;;18.80;;
45684;SDS011;46836;48.388;16.210;2022-12-15T09:33:55;46.72;;;24.58;;
45684;SDS011;46836;48.388;16.210;2022-12-15T09:36:24;43.92;;;22.58;;
45684;SDS011;46836;48.388;16.210;2022-12-15T09:38:52;39.60;;;22.13;;
45684;SDS011;46836;48.388;16.210;2022-12-15T09:41:23;36.22;;;19.42;;
45684;SDS011;46836;48.388;16.210;2022-12-15T09:43:54;36.63;;;19.40;;
45684;SDS011;46836;48.388;16.210;2022-12-15T09:52:11;33.83;;;20.23;;
45684;SDS011;46836;48.388;16.210;2022-12-15T09:54:41;36.20;;;19.38;;
45684;SDS011;46836;48.388;16.210;2022-12-15T09:57:15;33.30;;;19.63;;
45684;SDS011;46836;48.388;16.210;2022-12-15T10:08:12;31.92;;;18.30;;
45684;SDS011;46836;48.388;16.210;2022-12-15T10:10:49;40.63;;;20.55;;
45684;SDS011;46836;48.388;16.210;2022-12-15T10:16:20;36.30;;;20.05;;
45684;SDS011;46836;48.388;16.210;2022-12-15T10:18:55;33.17;;;19.33;;
45684;SDS011;46836;48.388;16.210;2022-12-15T10:21:39;38.80;;;20.67;;
45684;SDS011;46836;48.388;16.210;2022-12-15T10:24:17;40.90;;;21.92;;
45684;SDS011;46836;48.388;16.210;2022-12-15T10:27:11;38.83;;;22.00;;
45684;SDS011;46836;48.388;16.210;2022-12-15T10:29:43;37.30;;;19.55;;
45684;SDS011;46836;48.388;16.210;2022-12-15T10:35:32;38.72;;;21.05;;
45684;SDS011;46836;48.388;16.210;2022-12-15T10:38:05;35.30;;;21.58;;
45684;SDS011;46836;48.388;16.210;2022-12-15T10:43:29;36.90;;;21.88;;
45684;SDS011;46836;48.388;16.210;2022-12-15T10:48:49;35.33;;;19.73;;
45684;SDS011;46836;48.388;16.210;2022-12-15T10:51:27;42.22;;;21.05;;
45684;SDS011;46836;48.388;16.210;2022-12-15T10:56:45;36.20;;;21.00;;
45684;SDS011;46836;48.388;16.210;2022-12-15T11:05:32;42.63;;;23.55;;
45684;SDS011;46836;48.388;16.210;2022-12-15T11:08:24;48.17;;;22.73;;
45684;SDS011;46836;48.388;16.210;2022-12-15T11:14:13;41.55;;;22.73;;
45684;SDS011;46836;48.388;16.210;2022-12-15T11:22:28;40.33;;;22.48;;
45684;SDS011;46836;48.388;16.210;2022-12-15T11:27:42;38.15;;;21.95;;
45684;SDS011;46836;48.388;16.210;2022-12-15T11:30:23;38.08;;;23.73;;
45684;SDS011;46836;48.388;16.210;2022-12-15T11:32:57;37.55;;;23.13;;
45684;SDS011;46836;48.388;16.210;2022-12-15T11:35:32;35.28;;;20.52;;
45684;SDS011;46836;48.388;16.210;2022-12-15T11:38:40;36.03;;;20.52;;
45684;SDS011;46836;48.388;16.210;2022-12-15T11:55:30;42.53;;;23.10;;
45684;SDS011;46836;48.388;16.210;2022-12-15T12:06:52;43.70;;;23.88;;
45684;SDS011;46836;48.388;16.210;2022-12-15T12:09:32;43.28;;;23.08;;
45684;SDS011;46836;48.388;16.210;2022-12-15T12:12:09;45.33;;;23.67;;
45684;SDS011;46836;48.388;16.210;2022-12-15T12:14:55;48.15;;;24.42;;
45684;SDS011;46836;48.388;16.210;2022-12-15T12:20:17;42.70;;;23.83;;
45684;SDS011;46836;48.388;16.210;2022-12-15T12:22:59;49.13;;;25.85;;
45684;SDS011;46836;48.388;16.210;2022-12-15T12:25:32;46.03;;;24.27;;
45684;SDS011;46836;48.388;16.210;2022-12-15T12:28:15;45.78;;;25.65;;
45684;SDS011;46836;48.388;16.210;2022-12-15T12:30:51;38.97;;;22.30;;
45684;SDS011;46836;48.388;16.210;2022-12-15T12:36:04;45.15;;;24.48;;
45684;SDS011;46836;48.388;16.210;2022-12-15T12:38:40;44.35;;;24.55;;
45684;SDS011;46836;48.388;16.210;2022-12-15T12:41:25;48.03;;;24.83;;
45684;SDS011;46836;48.388;16.210;2022-12-15T12:46:43;48.25;;;24.90;;
45684;SDS011;46836;48.388;16.210;2022-12-15T12:51:53;53.55;;;26.38;;
45684;SDS011;46836;48.388;16.210;2022-12-15T12:57:01;57.88;;;24.35;;
45684;SDS011;46836;48.388;16.210;2022-12-15T13:07:53;45.72;;;24.90;;
45684;SDS011;46836;48.388;16.210;2022-12-15T13:10:33;46.53;;;24.25;;
45684;SDS011;46836;48.388;16.210;2022-12-15T13:13:15;48.70;;;23.52;;
45684;SDS011;46836;48.388;16.210;2022-12-15T13:15:45;44.45;;;23.40;;
45684;SDS011;46836;48.388;16.210;2022-12-15T13:18:20;49.55;;;23.13;;
45684;SDS011;46836;48.388;16.210;2022-12-15T13:20:52;42.35;;;23.27;;
45684;SDS011;46836;48.388;16.210;2022-12-15T13:39:29;48.83;;;25.38;;
45684;SDS011;46836;48.388;16.210;2022-12-15T13:44:41;47.25;;;25.00;;
45684;SDS011;46836;48.388;16.210;2022-12-15T13:49:56;49.03;;;23.98;;
45684;SDS011;46836;48.388;16.210;2022-12-15T13:52:44;48.67;;;24.38;;
45684;SDS011;46836;48.388;16.210;2022-12-15T13:55:37;54.67;;;25.60;;
45684;SDS011;46836;48.388;16.210;2022-12-15T13:58:16;51.47;;;25.80;;
45684;SDS011;46836;48.388;16.210;2022-12-15T14:00:50;41.97;;;23.58;;
45684;SDS011;46836;48.388;16.210;2022-12-15T14:03:19;49.15;;;24.35;;
45684;SDS011;46836;48.388;16.210;2022-12-15T14:05:54;49.33;;;24.95;;
45684;SDS011;46836;48.388;16.210;2022-12-15T14:08:25;48.33;;;24.05;;
45684;SDS011;46836;48.388;16.210;2022-12-15T14:10:56;46.70;;;24.35;;
45684;SDS011;46836;48.388;16.210;2022-12-15T14:13:26;56.97;;;26.58;;
45684;SDS011;46836;48.388;16.210;2022-12-15T14:15:58;45.17;;;23.33;;
45684;SDS011;46836;48.388;16.210;2022-12-15T14:18:41;45.95;;;23.73;;
45684;SDS011;46836;48.388;16.210;2022-12-15T14:21:21;46.55;;;22.75;;
45684;SDS011;46836;48.388;16.210;2022-12-15T14:23:50;47.35;;;23.25;;
45684;SDS011;46836;48.388;16.210;2022-12-15T14:26:37;50.30;;;25.40;;
45684;SDS011;46836;48.388;16.210;2022-12-15T14:29:08;50.45;;;23.80;;
45684;SDS011;46836;48.388;16.210;2022-12-15T14:31:35;48.70;;;25.50;;
45684;SDS011;46836;48.388;16.210;2022-12-15T14:34:14;44.10;;;24.85;;
45684;SDS011;46836;48.388;16.210;2022-12-15T14:37:06;48.50;;;25.13;;
45684;SDS011;46836;48.388;16.210;2022-12-15T14:39:41;52.50;;;26.40;;
45684;SDS011;46836;48.388;16.210;2022-12-15T14:42:17;54.17;;;24.77;;
45684;SDS011;46836;48.388;16.210;2022-12-15T14:44:48;45.00;;;23.95;;
45684;SDS011;46836;48.388;16.210;2022-12-15T14:47:24;57.65;;;23.58;;
45684;SDS011;46836;48.388;16.210;2022-12-15T14:49:54;58.00;;;26.17;;
45684;SDS011;46836;48.388;16.210;2022-12-15T14:52:27;55.92;;;24.58;;
45684;SDS011;46836;48.388;16.210;2022-12-15T14:54:59;51.75;;;25.85;;
45684;SDS011;46836;48.388;16.210;2022-12-15T14:57:45;52.67;;;26.13;;
45684;SDS011;46836;48.388;16.210;2022-12-15T15:05:46;53.72;;;26.20;;
45684;SDS011;46836;48.388;16.210;2022-12-15T15:14:36;58.65;;;25.90;;
45684;SDS011;46836;48.388;16.210;2022-12-15T15:16:55;46.90;;;24.55;;
45684;SDS011;46836;48.388;16.210;2022-12-15T15:20:01;53.05;;;24.15;;
45684;SDS011;46836;48.388;16.210;2022-12-15T15:25:02;50.83;;;23.60;;
45684;SDS011;46836;48.388;16.210;2022-12-15T15:33:53;52.75;;;25.73;;
45684;SDS011;46836;48.388;16.210;2022-12-15T15:36:35;50.53;;;26.35;;
45684;SDS011;46836;48.388;16.210;2022-12-15T15:39:09;51.25;;;25.70;;
45684;SDS011;46836;48.388;16.210;2022-12-15T15:41:45;52.20;;;27.70;;
45684;SDS011;46836;48.388;16.210;2022-12-15T15:44:13;48.92;;;25.95;;
45684;SDS011;46836;48.388;16.210;2022-12-15T15:46:48;55.70;;;27.63;;
45684;SDS011;46836;48.388;16.210;2022-12-15T15:49:18;55.22;;;27.77;;
45684;SDS011;46836;48.388;16.210;2022-12-15T15:51:47;52.90;;;25.95;;
45684;SDS011;46836;48.388;16.210;2022-12-15T15:54:19;62.95;;;28.40;;
45684;SDS011;46836;48.388;16.210;2022-12-15T15:56:49;58.00;;;27.15;;
45684;SDS011;46836;48.388;16.210;2022-12-15T15:59:17;54.72;;;26.95;;
45684;SDS011;46836;48.388;16.210;2022-12-15T16:01:48;57.22;;;28.08;;
45684;SDS011;46836;48.388;16.210;2022-12-15T16:04:21;55.30;;;28.77;;
45684;SDS011;46836;48.388;16.210;2022-12-15T16:06:48;57.38;;;30.08;;
45684;SDS011;46836;48.388;16.210;2022-12-15T16:09:17;60.42;;;28.90;;
45684;SDS011;46836;48.388;16.210;2022-12-15T16:11:45;54.13;;;27.85;;
45684;SDS011;46836;48.388;16.210;2022-12-15T16:14:13;53.53;;;29.02;;
45684;SDS011;46836;48.388;16.210;2022-12-15T16:16:42;58.80;;;28.30;;
45684;SDS011;46836;48.388;16.210;2022-12-15T16:19:10;55.45;;;28.40;;
45684;SDS011;46836;48.388;16.210;2022-12-15T16:21:40;64.03;;;31.40;;
45684;SDS011;46836;48.388;16.210;2022-12-15T16:24:13;60.03;;;29.80;;
45684;SDS011;46836;48.388;16.210;2022-12-15T16:26:47;64.65;;;29.17;;
45684;SDS011;46836;48.388;16.210;2022-12-15T16:29:16;60.40;;;29.27;;
45684;SDS011;46836;48.388;16.210;2022-12-15T16:31:46;69.03;;;30.65;;
45684;SDS011;46836;48.388;16.210;2022-12-15T16:34:13;64.13;;;28.63;;
45684;SDS011;46836;48.388;16.210;2022-12-15T16:36:47;78.20;;;31.70;;
45684;SDS011;46836;48.388;16.210;2022-12-15T16:39:22;61.78;;;29.80;;
45684;SDS011;46836;48.388;16.210;2022-12-15T16:41:53;61.58;;;28.45;;
45684;SDS011;46836;48.388;16.210;2022-12-15T16:44:22;72.85;;;30.10;;
45684;SDS011;46836;48.388;16.210;2022-12-15T16:46:50;67.10;;;29.88;;
45684;SDS011;46836;48.388;16.210;2022-12-15T16:49:18;69.00;;;27.67;;
45684;SDS011;46836;48.388;16.210;2022-12-15T16:51:46;68.38;;;30.15;;
45684;SDS011;46836;48.388;16.210;2022-12-15T16:54:17;59.00;;;29.95;;
45684;SDS011;46836;48.388;16.210;2022-12-15T16:56:47;67.40;;;29.48;;
45684;SDS011;46836;48.388;16.210;2022-12-15T16:59:15;77.60;;;33.08;;
45684;SDS011;46836;48.388;16.210;2022-12-15T17:02:01;66.30;;;28.05;;
45684;SDS011;46836;48.388;16.210;2022-12-15T17:05:00;82.32;;;30.55;;
45684;SDS011;46836;48.388;16.210;2022-12-15T17:07:27;71.70;;;30.10;;
45684;SDS011;46836;48.388;16.210;2022-12-15T17:09:55;75.35;;;31.92;;
45684;SDS011;46836;48.388;16.210;2022-12-15T17:12:22;65.38;;;30.90;;
45684;SDS011;46836;48.388;16.210;2022-12-15T17:14:49;75.07;;;30.90;;
45684;SDS011;46836;48.388;16.210;2022-12-15T17:17:17;68.82;;;29.67;;
45684;SDS011;46836;48.388;16.210;2022-12-15T17:19:45;69.60;;;28.88;;
45684;SDS011;46836;48.388;16.210;2022-12-15T17:22:33;52.72;;;27.55;;
45684;SDS011;46836;48.388;16.210;2022-12-15T17:25:01;72.50;;;29.10;;
45684;SDS011;46836;48.388;16.210;2022-12-15T17:27:29;64.72;;;28.35;;
45684;SDS011;46836;48.388;16.210;2022-12-15T17:29:57;62.05;;;28.38;;
45684;SDS011;46836;48.388;16.210;2022-12-15T17:32:26;65.63;;;27.75;;
45684;SDS011;46836;48.388;16.210;2022-12-15T17:34:53;68.68;;;28.75;;
45684;SDS011;46836;48.388;16.210;2022-12-15T17:37:20;79.22;;;31.00;;
45684;SDS011;46836;48.388;16.210;2022-12-15T17:39:47;70.22;;;29.42;;
45684;SDS011;46836;48.388;16.210;2022-12-15T17:42:17;79.28;;;30.27;;
45684;SDS011;46836;48.388;16.210;2022-12-15T17:44:46;69.47;;;28.85;;